createdAt,value
2018-08-30T00:00:33.455Z,36.87
2018-08-30T00:03:00.688Z,34.73
2018-08-30T00:05:27.938Z,36.73
2018-08-30T00:07:55.155Z,34.40
2018-08-30T00:10:22.397Z,32.70
2018-08-30T00:12:49.684Z,31.30
2018-08-30T00:15:16.925Z,32.43
2018-08-30T00:17:44.208Z,30.97
2018-08-30T00:20:11.456Z,30.10
2018-08-30T00:22:38.707Z,27.67
2018-08-30T00:25:06.037Z,28.50
2018-08-30T00:27:33.301Z,28.43
2018-08-30T00:30:00.524Z,28.87
2018-08-30T00:32:27.754Z,27.90
2018-08-30T00:34:54.975Z,20.57
2018-08-30T00:37:22.242Z,19.83
2018-08-30T00:39:50.127Z,18.63
2018-08-30T00:42:17.435Z,18.80
2018-08-30T00:44:44.790Z,16.00
2018-08-30T00:47:17.833Z,15.57
2018-08-30T00:49:46.178Z,15.20
2018-08-30T00:52:13.825Z,13.67
2018-08-30T00:54:41.092Z,15.07
2018-08-30T00:57:08.384Z,13.30
2018-08-30T00:59:35.680Z,12.30
2018-08-30T01:02:02.953Z,12.30
2018-08-30T01:04:31.570Z,11.70
2018-08-30T01:06:58.810Z,11.50
2018-08-30T01:09:26.133Z,10.20
2018-08-30T01:11:53.439Z,9.07
2018-08-30T01:14:20.860Z,8.87
2018-08-30T01:16:48.124Z,10.03
2018-08-30T01:19:16.628Z,9.47
2018-08-30T01:21:44.292Z,10.23
2018-08-30T01:24:11.608Z,10.40
2018-08-30T01:26:38.859Z,11.93
2018-08-30T01:29:06.108Z,11.93
2018-08-30T01:31:33.387Z,12.33
2018-08-30T01:34:00.742Z,12.30
2018-08-30T01:36:28.024Z,14.00
2018-08-30T01:38:55.248Z,14.70
2018-08-30T01:41:22.479Z,16.73
2018-08-30T01:43:49.929Z,17.77
2018-08-30T01:46:17.323Z,18.23
2018-08-30T01:48:44.586Z,18.20
2018-08-30T01:51:11.821Z,20.20
2018-08-30T01:53:39.056Z,21.23
2018-08-30T01:56:06.447Z,20.53
2018-08-30T01:58:33.746Z,23.40
2018-08-30T02:01:01.064Z,25.00
2018-08-30T02:03:28.327Z,23.80
2018-08-30T02:05:55.571Z,24.80
2018-08-30T02:08:22.818Z,26.13
2018-08-30T02:10:50.123Z,25.60
2018-08-30T02:13:17.436Z,25.63
2018-08-30T02:15:44.821Z,26.00
2018-08-30T02:18:12.233Z,25.67
2018-08-30T02:20:39.530Z,25.90
2018-08-30T02:23:06.820Z,26.37
2018-08-30T02:25:34.112Z,27.70
2018-08-30T02:28:01.332Z,29.30
2018-08-30T02:30:28.599Z,26.37
2018-08-30T02:32:55.860Z,28.60
2018-08-30T02:35:23.141Z,29.10
2018-08-30T02:37:51.030Z,28.97
2018-08-30T02:40:18.284Z,29.93
2018-08-30T02:42:45.514Z,28.43
2018-08-30T02:45:12.793Z,29.20
2018-08-30T02:47:40.057Z,30.87
2018-08-30T02:50:07.337Z,29.70
2018-08-30T02:52:34.735Z,30.70
2018-08-30T02:55:02.109Z,28.97
2018-08-30T02:57:29.784Z,31.53
2018-08-30T02:59:57.621Z,29.33
2018-08-30T03:02:25.456Z,31.00
2018-08-30T03:04:53.743Z,30.50
2018-08-30T03:07:20.991Z,30.67
2018-08-30T03:09:48.240Z,29.40
2018-08-30T03:12:15.467Z,33.17
2018-08-30T03:14:43.663Z,29.30
2018-08-30T03:17:10.876Z,31.67
2018-08-30T03:19:38.141Z,28.90
2018-08-30T03:22:06.005Z,30.30
2018-08-30T03:24:33.354Z,28.67
2018-08-30T03:27:00.645Z,29.60
2018-08-30T03:29:28.011Z,29.40
2018-08-30T03:31:55.233Z,30.77
2018-08-30T03:34:22.523Z,30.23
2018-08-30T03:36:49.759Z,30.70
2018-08-30T03:39:17.140Z,28.97
2018-08-30T03:41:44.430Z,28.83
2018-08-30T03:44:11.675Z,30.07
2018-08-30T03:46:38.997Z,30.50
2018-08-30T03:49:06.248Z,30.03
2018-08-30T03:51:33.516Z,27.83
2018-08-30T03:54:00.764Z,28.93
2018-08-30T03:56:28.100Z,30.60
2018-08-30T03:58:55.320Z,32.57
2018-08-30T04:01:22.536Z,32.13
2018-08-30T04:03:50.433Z,31.37
2018-08-30T04:06:18.387Z,32.53
2018-08-30T04:08:45.697Z,34.43
2018-08-30T04:11:12.985Z,31.63
2018-08-30T04:13:40.255Z,33.60
2018-08-30T04:16:07.721Z,34.40
2018-08-30T04:18:34.964Z,34.57
2018-08-30T04:21:02.228Z,35.10
2018-08-30T04:23:29.731Z,35.27
2018-08-30T04:25:57.083Z,35.57
2018-08-30T04:28:24.359Z,36.73
2018-08-30T04:30:52.165Z,37.27
2018-08-30T04:33:20.302Z,37.40
2018-08-30T04:35:47.541Z,39.63
2018-08-30T04:38:15.165Z,40.40
2018-08-30T04:40:42.497Z,37.33
2018-08-30T04:43:09.750Z,37.90
2018-08-30T04:45:37.073Z,37.87
2018-08-30T04:48:04.362Z,38.90
2018-08-30T04:50:31.671Z,38.30
2018-08-30T04:52:59.264Z,37.47
2018-08-30T04:55:30.640Z,37.07
2018-08-30T04:57:58.651Z,35.97
2018-08-30T05:00:26.367Z,34.80
2018-08-30T05:02:53.596Z,39.83
2018-08-30T05:05:20.783Z,35.87
2018-08-30T05:07:48.073Z,38.23
2018-08-30T05:10:15.344Z,37.60
2018-08-30T05:12:42.931Z,38.20
2018-08-30T05:15:10.144Z,36.77
2018-08-30T05:17:38.404Z,37.90
2018-08-30T05:20:05.671Z,37.80
2018-08-30T05:22:33.192Z,33.57
2018-08-30T05:25:00.851Z,33.73
2018-08-30T05:27:29.740Z,38.27
2018-08-30T05:29:57.022Z,36.87
2018-08-30T05:32:24.231Z,37.37
2018-08-30T05:34:51.512Z,33.50
2018-08-30T05:37:18.718Z,34.77
2018-08-30T05:39:45.996Z,32.90
2018-08-30T05:42:13.232Z,33.00
2018-08-30T05:44:40.455Z,33.60
2018-08-30T05:47:07.680Z,31.87
2018-08-30T05:49:34.922Z,31.67
2018-08-30T05:52:02.152Z,31.57
2018-08-30T05:54:29.377Z,31.53
2018-08-30T05:56:56.749Z,30.73
2018-08-30T05:59:24.124Z,30.37
2018-08-30T06:01:51.329Z,29.03
2018-08-30T06:04:18.611Z,29.20
2018-08-30T06:06:45.815Z,28.73
2018-08-30T06:09:13.108Z,27.13
2018-08-30T06:11:40.300Z,28.93
2018-08-30T06:14:07.520Z,27.00
2018-08-30T06:16:34.735Z,26.23
2018-08-30T06:19:02.032Z,26.20
2018-08-30T06:21:29.268Z,25.33
2018-08-30T06:23:56.815Z,26.90
2018-08-30T06:26:24.040Z,23.93
2018-08-30T06:28:51.359Z,23.33
2018-08-30T06:31:18.573Z,24.07
2018-08-30T06:33:45.916Z,23.53
2018-08-30T06:36:13.188Z,23.27
2018-08-30T06:38:40.409Z,22.53
2018-08-30T06:41:07.633Z,19.40
2018-08-30T06:43:34.858Z,20.73
2018-08-30T06:46:02.184Z,19.90
2018-08-30T06:48:29.495Z,21.00
2018-08-30T06:50:56.775Z,21.40
2018-08-30T06:53:24.008Z,21.17
2018-08-30T06:55:51.349Z,20.03
2018-08-30T06:58:20.645Z,19.93
2018-08-30T07:00:47.887Z,19.13
2018-08-30T07:03:16.116Z,21.63
2018-08-30T07:05:43.348Z,20.77
2018-08-30T07:08:10.707Z,19.30
2018-08-30T07:10:38.060Z,19.73
2018-08-30T07:13:05.443Z,20.63
2018-08-30T07:15:32.704Z,17.63
2018-08-30T07:18:00.513Z,19.63
2018-08-30T07:20:27.731Z,18.53
2018-08-30T07:22:54.941Z,17.43
2018-08-30T07:25:22.147Z,17.37
2018-08-30T07:27:49.396Z,16.93
2018-08-30T07:30:16.632Z,18.50
2018-08-30T07:32:43.927Z,14.30
2018-08-30T07:35:11.269Z,14.80
2018-08-30T07:37:38.508Z,15.73
2018-08-30T07:40:05.766Z,14.90
2018-08-30T07:42:35.537Z,13.10
2018-08-30T07:45:02.813Z,13.10
2018-08-30T07:47:30.088Z,12.77
2018-08-30T07:49:57.392Z,12.67
2018-08-30T07:52:24.633Z,12.00
2018-08-30T07:54:51.832Z,12.17
2018-08-30T07:57:19.160Z,11.67
2018-08-30T07:59:46.357Z,12.60
2018-08-30T08:02:13.605Z,11.37
2018-08-30T08:04:40.894Z,10.30
2018-08-30T08:07:08.200Z,9.80
2018-08-30T08:09:35.367Z,9.97
2018-08-30T08:12:02.678Z,10.03
2018-08-30T08:14:29.943Z,9.43
2018-08-30T08:16:57.244Z,9.70
2018-08-30T08:19:24.455Z,9.70
2018-08-30T08:21:51.702Z,8.50
2018-08-30T08:24:18.903Z,8.40
2018-08-30T08:26:46.123Z,7.40
2018-08-30T08:29:13.344Z,8.23
2018-08-30T08:31:40.548Z,8.50
2018-08-30T08:34:07.751Z,7.17
2018-08-30T08:36:35.047Z,8.50
2018-08-30T08:39:03.672Z,7.93
2018-08-30T08:41:30.936Z,8.50
2018-08-30T08:43:58.133Z,7.73
2018-08-30T08:46:25.411Z,7.67
2018-08-30T08:48:52.687Z,7.10
2018-08-30T08:51:20.109Z,6.83
2018-08-30T08:53:47.396Z,7.30
2018-08-30T08:56:14.699Z,7.50
2018-08-30T08:58:42.147Z,7.00
2018-08-30T09:01:09.342Z,6.40
2018-08-30T09:03:36.570Z,5.83
2018-08-30T09:06:03.842Z,6.93
2018-08-30T09:08:31.072Z,6.63
2018-08-30T09:10:58.303Z,6.90
2018-08-30T09:13:26.024Z,6.13
2018-08-30T09:15:53.245Z,5.90
2018-08-30T09:18:20.764Z,5.47
2018-08-30T09:20:48.340Z,6.20
2018-08-30T09:23:15.819Z,5.67
2018-08-30T09:25:43.297Z,5.97
2018-08-30T09:28:10.763Z,5.30
2018-08-30T09:30:38.208Z,4.60
2018-08-30T09:33:05.733Z,5.07
2018-08-30T09:35:33.287Z,4.93
2018-08-30T09:38:00.719Z,5.43
2018-08-30T09:40:28.135Z,5.17
2018-08-30T09:42:55.620Z,3.83
2018-08-30T09:45:23.052Z,4.60
2018-08-30T09:47:50.540Z,4.60
2018-08-30T09:50:18.053Z,6.50
2018-08-30T09:52:46.261Z,5.50
2018-08-30T09:55:13.773Z,5.10
2018-08-30T09:57:41.326Z,5.80
2018-08-30T10:00:12.693Z,5.50
2018-08-30T10:02:45.863Z,5.63
2018-08-30T10:05:13.313Z,5.30
2018-08-30T10:07:40.706Z,5.33
2018-08-30T10:10:08.205Z,5.33
2018-08-30T10:12:35.704Z,4.70
2018-08-30T10:15:03.264Z,4.83
2018-08-30T10:17:30.780Z,5.30
2018-08-30T10:19:58.184Z,4.23
2018-08-30T10:22:25.639Z,4.90
2018-08-30T10:24:53.049Z,5.20
2018-08-30T10:27:20.602Z,5.20
2018-08-30T10:29:48.125Z,4.10
2018-08-30T10:32:16.389Z,4.33
2018-08-30T10:34:43.877Z,4.43
2018-08-30T10:37:11.335Z,4.10
2018-08-30T10:39:38.799Z,4.17
2018-08-30T10:42:06.283Z,3.40
2018-08-30T10:44:33.711Z,3.47
2018-08-30T10:47:01.168Z,3.63
2018-08-30T10:49:28.709Z,3.37
2018-08-30T10:51:56.194Z,3.70
2018-08-30T10:54:23.615Z,3.83
2018-08-30T10:56:51.115Z,3.43
2018-08-30T10:59:18.607Z,2.77
2018-08-30T11:01:46.201Z,2.73
2018-08-30T11:04:14.026Z,2.93
2018-08-30T11:06:41.568Z,3.20
2018-08-30T11:09:09.595Z,3.47
2018-08-30T11:11:37.867Z,3.40
2018-08-30T11:14:05.337Z,3.73
2018-08-30T11:16:32.768Z,3.20
2018-08-30T11:19:00.283Z,2.40
2018-08-30T11:21:27.834Z,3.30
2018-08-30T11:23:55.287Z,3.17
2018-08-30T11:26:22.715Z,2.53
2018-08-30T11:28:50.715Z,3.97
2018-08-30T11:31:18.401Z,3.53
2018-08-30T11:33:46.040Z,3.10
2018-08-30T11:36:13.508Z,3.40
2018-08-30T11:38:41.009Z,3.00
2018-08-30T11:41:08.491Z,2.90
2018-08-30T11:43:36.188Z,2.37
2018-08-30T11:46:03.631Z,3.07
2018-08-30T11:48:31.064Z,2.30
2018-08-30T11:50:58.610Z,2.23
2018-08-30T11:53:26.056Z,2.63
2018-08-30T11:55:53.566Z,2.30
2018-08-30T11:58:21.295Z,2.90
2018-08-30T12:00:48.984Z,2.40
2018-08-30T12:03:17.481Z,2.63
2018-08-30T12:05:44.903Z,2.90
2018-08-30T12:08:12.226Z,3.03
2018-08-30T12:10:39.710Z,2.27
2018-08-30T12:13:07.294Z,2.80
2018-08-30T12:15:34.983Z,2.30
2018-08-30T12:18:03.107Z,1.97
2018-08-30T12:20:30.368Z,2.87
2018-08-30T12:22:57.932Z,3.60
2018-08-30T12:25:28.009Z,2.30
2018-08-30T12:27:59.367Z,2.77
2018-08-30T12:30:27.042Z,2.33
2018-08-30T12:32:54.365Z,2.90
2018-08-30T12:35:22.455Z,2.70
2018-08-30T12:37:49.536Z,2.87
2018-08-30T12:40:16.914Z,2.47
2018-08-30T12:42:44.243Z,2.43
2018-08-30T12:45:11.454Z,2.50
2018-08-30T12:47:40.929Z,2.20
2018-08-30T12:50:08.393Z,2.57
2018-08-30T12:52:35.646Z,2.37
2018-08-30T12:55:03.344Z,2.87
2018-08-30T12:57:31.909Z,2.60
2018-08-30T12:59:59.849Z,3.07
2018-08-30T13:02:27.197Z,2.40
2018-08-30T13:04:54.414Z,2.40
2018-08-30T13:07:23.252Z,2.40
2018-08-30T13:09:50.665Z,2.87
2018-08-30T13:12:18.144Z,2.40
2018-08-30T13:14:45.296Z,2.30
2018-08-30T13:17:12.509Z,3.03
2018-08-30T13:19:40.016Z,2.37
2018-08-30T13:22:07.333Z,2.47
2018-08-30T13:24:34.735Z,2.87
2018-08-30T13:27:01.932Z,2.47
2018-08-30T13:29:30.208Z,2.40
2018-08-30T13:31:57.710Z,2.43
2018-08-30T13:34:25.127Z,2.63
2018-08-30T13:36:52.557Z,2.20
2018-08-30T13:39:19.757Z,2.73
2018-08-30T13:41:46.782Z,2.57
2018-08-30T13:44:13.888Z,2.30
2018-08-30T13:46:41.679Z,3.13
2018-08-30T13:49:09.940Z,2.83
2018-08-30T13:51:37.406Z,2.20
2018-08-30T13:54:04.410Z,2.40
2018-08-30T13:56:31.857Z,2.57
2018-08-30T13:58:59.063Z,3.40
2018-08-30T14:01:26.415Z,2.77
2018-08-30T14:03:53.391Z,2.43
2018-08-30T14:06:21.819Z,3.23
2018-08-30T14:08:49.007Z,3.00
2018-08-30T14:11:16.578Z,3.00
2018-08-30T14:13:43.846Z,3.13
2018-08-30T14:16:12.260Z,2.83
2018-08-30T14:18:41.804Z,2.87
2018-08-30T14:21:10.391Z,3.23
2018-08-30T14:23:39.191Z,2.63
2018-08-30T14:26:06.431Z,2.70
2018-08-30T14:28:33.784Z,2.90
2018-08-30T14:31:01.068Z,2.77
2018-08-30T14:33:28.416Z,2.60
2018-08-30T14:35:55.652Z,3.03
2018-08-30T14:38:23.093Z,2.77
2018-08-30T14:40:51.436Z,3.60
2018-08-30T14:43:19.100Z,2.40
2018-08-30T14:45:47.455Z,2.53
2018-08-30T14:48:14.755Z,3.30
2018-08-30T14:50:42.044Z,2.70
2018-08-30T14:53:10.021Z,2.80
2018-08-30T14:55:37.363Z,3.00
2018-08-30T14:58:05.672Z,3.30
2018-08-30T15:00:35.919Z,2.60
2018-08-30T15:03:06.998Z,3.00
2018-08-30T15:05:34.581Z,2.93
2018-08-30T15:08:01.788Z,2.80
2018-08-30T15:10:29.096Z,2.40
2018-08-30T15:12:56.262Z,2.63
2018-08-30T15:15:23.475Z,2.80
2018-08-30T15:17:50.731Z,2.90
2018-08-30T15:20:19.076Z,2.80
2018-08-30T15:22:46.310Z,3.40
2018-08-30T15:25:13.993Z,2.47
2018-08-30T15:27:41.353Z,3.03
2018-08-30T15:30:08.810Z,2.50
2018-08-30T15:32:35.941Z,2.47
2018-08-30T15:35:03.283Z,2.30
2018-08-30T15:37:30.665Z,2.40
2018-08-30T15:39:58.007Z,2.80
2018-08-30T15:42:25.376Z,2.30
2018-08-30T15:44:52.499Z,2.10
2018-08-30T15:47:19.909Z,2.60
2018-08-30T15:49:47.000Z,2.40
2018-08-30T15:52:14.263Z,2.27
2018-08-30T15:54:41.616Z,2.20
2018-08-30T15:57:09.218Z,2.70
2018-08-30T15:59:36.390Z,2.40
2018-08-30T16:02:03.665Z,2.43
2018-08-30T16:04:30.895Z,3.53
2018-08-30T16:06:58.212Z,3.03
2018-08-30T16:09:25.596Z,2.43
2018-08-30T16:11:52.819Z,3.27
2018-08-30T16:14:20.174Z,2.20
2018-08-30T16:16:47.445Z,3.53
2018-08-30T16:19:14.661Z,2.83
2018-08-30T16:21:42.012Z,3.40
2018-08-30T16:24:09.324Z,2.63
2018-08-30T16:26:36.520Z,2.73
2018-08-30T16:29:03.861Z,2.63
2018-08-30T16:31:31.009Z,2.20
2018-08-30T16:33:58.259Z,2.50
2018-08-30T16:36:25.509Z,2.93
2018-08-30T16:38:52.840Z,2.10
2018-08-30T16:41:20.106Z,3.20
2018-08-30T16:43:47.299Z,2.10
2018-08-30T16:46:15.117Z,1.80
2018-08-30T16:48:42.508Z,2.80
2018-08-30T16:51:09.653Z,2.40
2018-08-30T16:53:36.914Z,2.43
2018-08-30T16:56:04.379Z,2.10
2018-08-30T16:58:31.667Z,2.53
2018-08-30T17:00:59.786Z,2.13
2018-08-30T17:03:28.764Z,2.50
2018-08-30T17:05:58.464Z,2.23
2018-08-30T17:08:25.760Z,2.50
2018-08-30T17:10:52.998Z,3.13
2018-08-30T17:13:21.331Z,2.13
2018-08-30T17:15:49.400Z,2.27
2018-08-30T17:18:16.640Z,2.70
2018-08-30T17:20:47.608Z,2.40
2018-08-30T17:23:14.913Z,3.17
2018-08-30T17:25:42.764Z,2.50
2018-08-30T17:28:10.063Z,2.13
2018-08-30T17:30:37.400Z,3.27
2018-08-30T17:33:04.827Z,2.10
2018-08-30T17:35:32.277Z,2.30
2018-08-30T17:37:59.667Z,1.80
2018-08-30T17:40:27.146Z,2.07
2018-08-30T17:42:54.529Z,2.70
2018-08-30T17:45:22.198Z,2.00
2018-08-30T17:47:49.421Z,2.37
2018-08-30T17:50:17.442Z,2.93
2018-08-30T17:52:44.883Z,2.53
2018-08-30T17:55:12.596Z,2.10
2018-08-30T17:57:40.044Z,1.90
2018-08-30T18:00:09.107Z,1.90
2018-08-30T18:02:36.515Z,2.03
2018-08-30T18:05:05.156Z,1.90
2018-08-30T18:07:32.494Z,1.80
2018-08-30T18:10:00.260Z,2.33
2018-08-30T18:12:27.928Z,2.30
2018-08-30T18:14:55.433Z,1.97
2018-08-30T18:17:22.998Z,1.93
2018-08-30T18:19:50.392Z,1.97
2018-08-30T18:22:17.816Z,1.70
2018-08-30T18:24:45.333Z,1.77
2018-08-30T18:27:12.856Z,3.13
2018-08-30T18:29:40.250Z,1.90
2018-08-30T18:32:07.696Z,1.90
2018-08-30T18:34:35.112Z,2.20
2018-08-30T18:37:02.672Z,2.30
2018-08-30T18:39:30.167Z,2.63
2018-08-30T18:41:58.687Z,2.50
2018-08-30T18:44:26.263Z,2.67
2018-08-30T18:46:53.739Z,2.27
2018-08-30T18:49:21.196Z,2.20
2018-08-30T18:51:48.637Z,2.20
2018-08-30T18:54:16.092Z,2.37
2018-08-30T18:56:44.285Z,3.43
2018-08-30T18:59:12.518Z,2.57
2018-08-30T19:01:40.077Z,2.53
2018-08-30T19:04:07.532Z,2.87
2018-08-30T19:06:36.091Z,4.07
2018-08-30T19:09:05.159Z,2.17
2018-08-30T19:11:33.314Z,2.80
2018-08-30T19:14:00.748Z,2.70
2018-08-30T19:16:34.943Z,1.93
2018-08-30T19:19:13.599Z,2.97
2018-08-30T19:21:41.111Z,4.03
2018-08-30T19:24:13.153Z,2.77
2018-08-30T19:26:40.651Z,2.90
2018-08-30T19:29:11.253Z,2.70
2018-08-30T19:31:41.579Z,2.90
2018-08-30T19:34:10.226Z,2.80
2018-08-30T19:36:43.061Z,3.70
2018-08-30T19:39:13.418Z,2.70
2018-08-30T19:41:42.130Z,2.53
2018-08-30T19:44:09.938Z,2.27
2018-08-30T19:46:37.478Z,2.47
2018-08-30T19:49:05.013Z,2.83
2018-08-30T19:51:32.711Z,5.57
2018-08-30T19:54:00.340Z,3.47
2018-08-30T19:56:27.800Z,2.80
2018-08-30T19:58:55.631Z,3.30
2018-08-30T20:01:24.783Z,3.30
2018-08-30T20:03:56.096Z,3.37
2018-08-30T20:06:25.294Z,2.60
2018-08-30T20:08:53.755Z,2.80
2018-08-30T20:11:21.313Z,4.13
2018-08-30T20:13:48.913Z,3.70
2018-08-30T20:16:16.341Z,3.90
2018-08-30T20:18:43.927Z,2.50
2018-08-30T20:21:11.465Z,2.57
2018-08-30T20:23:38.890Z,2.80
2018-08-30T20:26:08.839Z,2.60
2018-08-30T20:28:37.043Z,2.97
2018-08-30T20:31:04.620Z,3.70
2018-08-30T20:33:32.139Z,3.40
2018-08-30T20:36:00.027Z,3.57
2018-08-30T20:38:27.546Z,3.20
2018-08-30T20:40:55.046Z,3.47
2018-08-30T20:43:23.642Z,2.97
2018-08-30T20:45:52.198Z,3.43
2018-08-30T20:48:21.797Z,14.27
2018-08-30T20:50:49.335Z,4.53
2018-08-30T20:53:17.942Z,3.67
2018-08-30T20:55:46.519Z,3.00
2018-08-30T20:58:13.984Z,2.60
2018-08-30T21:00:41.528Z,3.07
2018-08-30T21:03:09.160Z,3.23
2018-08-30T21:05:36.628Z,2.73
2018-08-30T21:08:04.163Z,3.27
2018-08-30T21:10:32.272Z,3.27
2018-08-30T21:12:59.725Z,3.27
2018-08-30T21:15:28.534Z,3.00
2018-08-30T21:17:56.021Z,2.90
2018-08-30T21:20:23.480Z,2.93
2018-08-30T21:22:52.232Z,2.57
2018-08-30T21:25:20.139Z,3.20
2018-08-30T21:27:47.894Z,2.80
2018-08-30T21:30:20.361Z,2.80
2018-08-30T21:32:48.006Z,3.23
2018-08-30T21:35:17.238Z,2.90
2018-08-30T21:37:45.543Z,3.10
2018-08-30T21:40:12.958Z,2.90
2018-08-30T21:42:40.555Z,2.60
2018-08-30T21:45:08.478Z,2.63
2018-08-30T21:47:35.950Z,3.37
2018-08-30T21:50:04.478Z,3.17
2018-08-30T21:52:31.977Z,2.57
2018-08-30T21:55:00.508Z,2.40
2018-08-30T21:57:28.142Z,2.90
2018-08-30T21:59:55.660Z,2.73
2018-08-30T22:02:24.286Z,2.90
2018-08-30T22:04:52.792Z,2.80
2018-08-30T22:07:20.215Z,2.20
2018-08-30T22:09:48.608Z,2.90
2018-08-30T22:12:17.043Z,2.73
2018-08-30T22:14:44.403Z,2.73
2018-08-30T22:17:11.839Z,2.97
2018-08-30T22:19:39.104Z,2.83
2018-08-30T22:22:06.472Z,3.30
2018-08-30T22:24:34.311Z,2.70
2018-08-30T22:27:01.620Z,2.23
2018-08-30T22:29:28.846Z,2.70
2018-08-30T22:31:56.233Z,3.20
2018-08-30T22:34:23.697Z,3.43
2018-08-30T22:36:50.964Z,2.60
2018-08-30T22:39:18.528Z,3.40
2018-08-30T22:41:46.074Z,2.80
2018-08-30T22:44:13.377Z,3.23
2018-08-30T22:46:41.129Z,2.80
2018-08-30T22:49:08.447Z,2.83
2018-08-30T22:51:35.746Z,2.80
2018-08-30T22:54:03.053Z,3.03
2018-08-30T22:56:30.312Z,3.20
2018-08-30T22:58:57.545Z,3.73
2018-08-30T23:01:24.883Z,3.20
2018-08-30T23:03:52.372Z,3.10
2018-08-30T23:06:19.894Z,3.57
2018-08-30T23:08:47.356Z,3.33
2018-08-30T23:11:14.825Z,2.23
2018-08-30T23:13:42.298Z,3.20
2018-08-30T23:16:10.625Z,2.53
2018-08-30T23:18:37.957Z,2.70
2018-08-30T23:21:06.331Z,2.87
2018-08-30T23:23:33.643Z,2.60
2018-08-30T23:26:00.926Z,3.00
2018-08-30T23:28:28.201Z,3.33
2018-08-30T23:30:55.412Z,2.77
2018-08-30T23:33:23.024Z,3.80
2018-08-30T23:35:50.367Z,3.60
2018-08-30T23:38:17.597Z,2.80
2018-08-30T23:40:45.108Z,3.23
2018-08-30T23:43:12.529Z,2.50
2018-08-30T23:45:40.088Z,3.17
2018-08-30T23:48:07.501Z,2.43
2018-08-30T23:50:34.927Z,2.43
2018-08-30T23:53:02.368Z,2.37
2018-08-30T23:55:29.814Z,2.90
2018-08-30T23:58:08.815Z,2.20
